Saint Louis, Missouri
Traffic Map
Current Weather Conditions
Saint Louis, Missouri
Scattered Clouds
Scattered Clouds
19°
Feels Like: 19°
Wind Chill: 19° Ceiling: Unl
Heat Index: 19° Visibility: 10mi
Dew Point: 13° Wind: 6mph
Humidity: 68% Direction: ° ()
Pressure: 29.97in Gusts: 0mph
Raw Report DataKCPS 171909Z VRB05KT 10SM SCT030 19/13 A2997 RMK AO2 T01940133
Traffic Incident Summary
Active as of:
Severity:
Category:
InformationThere was an issue retrieving the traffic information for this location. Please try a different location or try again shortly.
Advertisements
Track Severe Weather on mobile